Tiempo atmosférico en la estación meteorológica de Becerreá, Lugo (1080 m.)



Fecha
DESCASC
Temp. máxima en grados centígrados (hora)
DESCASC
Temp. mínima en grados centígrados (hora)
DESCASC
Temp. media en grados centígrados
DESCASC
Racha de viento máxima en m/sg (hora)
DESCASC
Velocidad máxima media en intervalos de 10 minutos(hora)
DESCASC
Precipitaciones diarias en mm
DESCASC
Precipitaciones de 00:00 a 06:00 en mm
DESCASC
Precipitaciones de 06:00 a 12:00 en mm
DESCASC
Precipitaciones de 12:00 a 18:00 en mm
DESCASC
Precipitaciones de 18:00 a 24:00 en mm
DESCASC
15-11-2018 13.7 (14:10) 8.6 (00:00) 11.2 10 (01:10) 5.28 (08:30) 0 0 0 0 0
14-11-2018 13.2 (13:30) 8.3 (07:40) 10.8 10.83 (13:00) 5.83 (23:40) 0 0 0 0 0
13-11-2018 10.5 (16:00) 1.7 (07:00) 6.1 10.28 (19:50) 5.83 (08:10) 0 0 0 0 0
12-11-2018 7.9 (16:10) 2.7 (08:20) 5.3 6.39 (06:00) 3.89 (18:00) 0 0 0 0 0
11-11-2018 8.2 (07:30) 4.3 (00:00) 6.3 18.61 (07:30) 7.78 (07:30) 16.8 1.4 7.4 7.6 0.4
10-11-2018 10 (02:30) 6.3 (00:00) 8.2 19.17 (00:20) 8.33 (00:10) 16.2 13 0.8 2.2 0.2
09-11-2018 9.8 (23:30) 2.5 (00:00) 6.2 25.28 (15:00) 10.56 (14:50) 5.8 0.2 0 1.4 4.2
08-11-2018 6.1 (12:10) 2.9 (00:00) 4.5 13.61 (14:00) 6.11 (10:00) 10.2 0 0.2 5.4 4.6
07-11-2018 6.9 (00:00) 3 (00:00) 5 15.56 (00:40) 5.83 (01:30) 7.2 5 1.2 1 0
06-11-2018 8.1 (17:30) 2.6 (00:00) 5.4 21.39 (17:00) 9.72 (22:30) 18.4 0.2 1.6 0.4 16.2
05-11-2018 5.6 (00:00) 2 (00:00) 3.8 13.89 (21:00) 6.11 (15:40) 31.2 7 10.2 12.4 1.6
04-11-2018 9.3 (08:50) 5.6 (00:00) 7.5 10.83 (18:10) 5.56 (23:00) 11 0 1 1.4 8.6
03-11-2018 12.2 (13:50) 6 (00:00) 9.1 6.94 (16:50) 5.28 (16:50) 0 0 0 0 0
02-11-2018 10.7 (16:00) 8.1 (00:00) 9.4 11.67 (00:20) 4.72 (05:30) 13.8 10.6 2 1.2 0
01-11-2018 8.5 (23:59) 3 (00:00) 5.8 13.06 (21:00) 4.72 (21:50) 5.8 0.6 0 0.2 5
31-10-2018 6.8 (14:20) 2.2 (00:00) 4.5 8.06 (07:10) 4.44 (07:10) 5.2 3.8 1.4 0 0
30-10-2018 4.6 (15:00) 1.2 (00:00) 2.9 11.67 (03:30) 6.11 (00:20) 27.4 16.2 5.6 5.6 0
29-10-2018 2 (17:00) -1 (-00:0) 0.5 13.06 (23:20) 6.67 (23:50) 19.6 0 1 9.2 9.4
28-10-2018 0.6 (15:30) -1.6 (-00:0) -0.5 7.78 (14:40) 3.89 (18:30) 5.6 0 0 5.6 0
27-10-2018 6.2 (00:00) -1.2 (-00:0) 2.5 9.17 (01:40) 4.17 (16:10) 6.6 2.2 1.4 2.8 0.2
26-10-2018 14 (12:30) 6.2 (00:00) 10.1 10.56 (22:20) 3.61 (22:30) 0 0 0 0 0
25-10-2018 18 (13:50) 10.6 (00:00) 14.3 5.56 (16:40) 3.61 (08:00) 0 0 0 0 0
24-10-2018 18.9 (14:30) 9.2 (00:00) 14 6.39 (01:40) 2.78 (01:30) 0 0 0 0 0
23-10-2018 15 (15:30) 6.3 (00:00) 10.7 7.5 (12:20) 1.94 (06:20) 0 0 0 0 0
22-10-2018 14.4 (14:30) 8.7 (00:00) 11.5 8.89 (20:30) 3.33 (20:30) 0 0 0 0 0
21-10-2018 17.3 (15:20) 9.8 (00:00) 13.5 10.83 (05:10) 3.61 (05:20) 0 0 0 0 0
20-10-2018 15.2 (16:50) 7.8 (00:00) 11.5 8.61 (04:00) 1.94 (07:20) 0 0 0 0 0
19-10-2018 15 (14:40) 8.6 (00:00) 11.8 9.72 (20:00) 3.61 (19:20) 0 0 0 0 0
18-10-2018 12.1 (15:40) 8 (00:00) 10.1 10.56 (08:20) 2.78 (17:10) 0.4 0.4 0 0 0

Gráficas

Temp. máximas Temp. mínimas Temp. medias Precipitaciones Rachas de viento máximas Velocidades máximas media en intervalos de 10 minutos

Datos horarios

Fecha y hora oficial Temperatura (ºC) Velocidad del viento (km/h) Dirección del viento Racha (km/h) Dirección de racha Precipitación (mm) Presión (hPa) Tendencia (hPa) Humedad (%)
2018-11-16 23:00:00 9.2 12 Sudeste 24 Sudeste 0 -- -- 86
2018-11-16 22:00:00 9.2 12 Sudeste 32 Sudeste 0 -- -- 87
2018-11-16 21:00:00 9.1 11 Este 36 Este 0 -- -- 89
2018-11-16 20:00:00 9.6 14 Sudeste 28 Este 0 -- -- 87
2018-11-16 19:00:00 9.9 14 Sudeste 28 Sudeste 0 -- -- 86
2018-11-16 18:00:00 10.6 12 Sudeste 36 Sur 0 -- -- 84
2018-11-16 17:00:00 12.1 9 Sudeste 24 Este 0 -- -- 77
2018-11-16 16:00:00 12.7 11 Sudeste 23 Sudeste 0 -- -- 75
2018-11-16 15:00:00 13.2 10 Este 24 Sudeste 0 -- -- 75
2018-11-16 14:00:00 14 6 Este 24 Este 0 -- -- 72
2018-11-16 13:00:00 12.6 12 Este 33 Sudeste 0 -- -- 78
2018-11-16 12:00:00 12.6 8 Sudeste 23 Sudeste 0 -- -- 77
2018-11-16 11:00:00 12.2 8 Sudeste 29 Este 0 -- -- 78
2018-11-16 10:00:00 10.9 12 Sudeste 30 Sudeste 0 -- -- 83
2018-11-16 09:00:00 9.9 15 Sudeste 33 Sudeste 0 -- -- 84
2018-11-16 08:00:00 9.2 14 Sudeste 32 Sudeste 0 -- -- 88
2018-11-16 07:00:00 8.9 15 Sudeste 31 Este 0 -- -- 89
2018-11-16 06:00:00 9.3 15 Sudeste 40 Este 0 -- -- 86
2018-11-16 05:00:00 9.5 15 Sudeste 38 Sudeste 0 -- -- 85
2018-11-16 04:00:00 9.8 17 Sudeste 35 Sudeste 0 -- -- 84
2018-11-16 03:00:00 9.8 17 Sudeste 42 Sudeste 0 -- -- 84
2018-11-16 02:00:00 9.8 14 Sudeste 32 Sudeste 0 -- -- 84
2018-11-16 01:00:00 9.6 13 Sudeste 33 Sudeste 0 -- -- 86
2018-11-16 00:00:00 9.7 15 Sudeste 35 Sudeste 0 -- -- 88
2018-11-15 23:00:00 9.9 14 Sudeste 32 Sudeste 0 -- -- 85
2018-11-15 22:00:00 10.1 14 Sudeste 36 Sudeste 0 -- -- 85
2018-11-15 21:00:00 10.2 15 Sudeste 26 Sudeste 0 -- -- 83
2018-11-15 20:00:00 10.6 12 Sudeste 21 Este 0 -- -- 79
2018-11-15 19:00:00 10.6 12 Sudeste 24 Sudeste 0 -- -- 81
2018-11-15 18:00:00 11.1 12 Sudeste 23 Sudeste 0 -- -- 80
2018-11-15 17:00:00 12.1 9 Sudeste 21 Este 0 -- -- 79
2018-11-15 16:00:00 12.7 9 Este 22 Este 0 -- -- 77
2018-11-15 15:00:00 13 8 Este 23 Sudeste 0 -- -- 77
2018-11-15 14:00:00 13.5 8 Este 24 Sudeste 0 -- -- 78
2018-11-15 13:00:00 11.1 9 Este 25 Sudeste 0 -- -- 87
2018-11-15 12:00:00 10.1 14 Sudeste 32 Sudeste 0 -- -- 89
2018-11-15 11:00:00 10 17 Sudeste 34 Este 0 -- -- 88
2018-11-15 10:00:00 9.7 9 Este 31 Sudeste 0 -- -- 90
2018-11-15 09:00:00 9.7 17 Sudeste 34 Sudeste 0 -- -- 89
2018-11-15 08:00:00 9.5 16 Sudeste 34 Sudeste 0 -- -- 88
2018-11-15 07:00:00 9.4 13 Sudeste 32 Sudeste 0 -- -- 88
2018-11-15 06:00:00 9.2 14 Sudeste 33 Sudeste 0 -- -- 88
2018-11-15 05:00:00 9.2 17 Sudeste 30 Sudeste 0 -- -- 89
2018-11-15 04:00:00 9.4 18 Sudeste 32 Sudeste 0 -- -- 87
2018-11-15 03:00:00 9 13 Sudeste 33 Sudeste 0 -- -- 89
2018-11-15 02:00:00 8.9 16 Sudeste 36 Sudeste 0 -- -- 89
2018-11-15 01:00:00 8.6 17 Sudeste 34 Sudeste 0 -- -- 89
2018-11-15 00:00:00 8.6 18 Sudeste 35 Sudeste 0 -- -- 88
2018-11-14 23:00:00 9.1 17 Sudeste 36 Sudeste 0 -- -- 85
2018-11-14 22:00:00 9 19 Sudeste 33 Sudeste 0 -- -- 85
2018-11-14 21:00:00 9.2 12 Sudeste 26 Sudeste 0 -- -- 85
2018-11-14 20:00:00 9.9 14 Sudeste 31 Sudeste 0 -- -- 82
2018-11-14 19:00:00 10.1 13 Sudeste 24 Sudeste 0 -- -- 83
2018-11-14 18:00:00 10.6 11 Sudeste 21 Sudeste 0 -- -- 83
2018-11-14 17:00:00 11.9 6 Este 23 Este 0 -- -- 80
2018-11-14 16:00:00 12.3 8 Este 21 Sudeste 0 -- -- 78
2018-11-14 15:00:00 12.6 10 Este 26 Sudeste 0 -- -- 77
2018-11-14 14:00:00 13 9 Este 33 Sudeste 0 -- -- 77
2018-11-14 13:00:00 12.8 14 Este 39 Este 0 -- -- 74
2018-11-14 12:00:00 12.4 12 Este 35 Este 0 -- -- 77
2018-11-14 11:00:00 11.5 14 Este 39 Este 0 -- -- 78
2018-11-14 10:00:00 10.6 10 Sudeste 29 Sudeste 0 -- -- 82
2018-11-14 09:00:00 9.4 13 Sudeste 31 Sudeste 0 -- -- 81
2018-11-14 08:00:00 8.6 14 Sudeste 22 Sudeste 0 -- -- 83
2018-11-14 07:00:00 9.1 13 Sudeste 26 Sudeste 0 -- -- 79
2018-11-14 06:00:00 8.9 12 Sudeste 23 Sur 0 -- -- 80
2018-11-14 05:00:00 9.7 13 Sudeste 28 Sudeste 0 -- -- 75
2018-11-14 04:00:00 9.4 14 Sur 26 Sur 0 -- -- 77
2018-11-14 03:00:00 9.1 14 Sudeste 24 Sudeste 0 -- -- 78
2018-11-14 02:00:00 9.1 14 Sudeste 24 Sudeste 0 -- -- 78
2018-11-14 01:00:00 9.1 14 Sur 26 Sudeste 0 -- -- 77
2018-11-14 00:00:00 8.8 13 Sur 22 Sudeste 0 -- -- 80
2018-11-13 23:00:00 8.8 13 Sur 21 Sudeste 0 -- -- 80
2018-11-13 22:00:00 8.5 12 Sudeste 29 Sudeste 0 -- -- 83
2018-11-13 21:00:00 8.6 13 Sudeste 37 Sudeste 0 -- -- 84
2018-11-13 20:00:00 8.9 15 Sudeste 37 Sudeste 0 -- -- 83
2018-11-13 19:00:00 8.9 15 Sudeste 28 Sudeste 0 -- -- 81
2018-11-13 18:00:00 8.9 13 Sudeste 24 Este 0 -- -- 81
2018-11-13 17:00:00 9.6 10 Sudeste 15 Sudeste 0 -- -- 77
2018-11-13 16:00:00 10.5 4 Sudeste 14 Sudeste 0 -- -- 76
2018-11-13 15:00:00 10.1 6 Sudeste 27 Este 0 -- -- 77
2018-11-13 14:00:00 9.9 11 Sudeste 31 Sudeste 0 -- -- 79
2018-11-13 13:00:00 9.3 12 Este 31 Sudeste 0 -- -- 78
2018-11-13 12:00:00 8.7 13 Este 27 Sudeste 0 -- -- 78
2018-11-13 11:00:00 7.8 10 Sudeste 23 Sudeste 0 -- -- 80
2018-11-13 10:00:00 6.3 14 Sudeste 27 Sudeste 0 -- -- 84
2018-11-13 09:00:00 5.1 14 Sudeste 33 Sudeste 0 -- -- 81
2018-11-13 08:00:00 3.7 18 Sudeste 28 Este 0 -- -- 91
2018-11-13 07:00:00 1.7 6 Este 14 Sudeste 0 -- -- 99
2018-11-13 06:00:00 2.1 5 Este 15 Sudeste 0 -- -- 99
2018-11-13 05:00:00 2.2 6 Este 12 Sudeste 0 -- -- 100
2018-11-13 04:00:00 2.3 6 Este 10 Sudeste 0 -- -- 100
2018-11-13 03:00:00 2.3 3 Este 5 Sudeste 0 -- -- 100
2018-11-13 02:00:00 2.3 4 Este 5 Este 0 -- -- 100
2018-11-13 01:00:00 2.6 0 Calma 5 Sudeste 0 -- -- 99
2018-11-13 00:00:00 3.2 0 Calma 5 Norte 0 -- -- 98
2018-11-12 23:00:00 4.4 4 Noroeste 13 Noroeste 0 -- -- 99
2018-11-12 22:00:00 4.4 8 Noroeste 16 Noroeste 0 -- -- 97
2018-11-12 21:00:00 4 5 Noroeste 9 Noroeste 0 -- -- 98
2018-11-12 20:00:00 4.4 3 Noroeste 14 Oeste 0 -- -- 95
2018-11-12 19:00:00 5.1 11 Oeste 19 Oeste 0 -- -- 91
2018-11-12 18:00:00 6 14 Oeste 20 Oeste 0 -- -- 90
2018-11-12 17:00:00 7.2 12 Oeste 21 Oeste 0 -- -- 88
2018-11-12 16:00:00 7.8 12 Oeste 23 Oeste 0 -- -- 85
2018-11-12 15:00:00 7.3 10 Oeste 19 Sudoeste 0 -- -- 84
2018-11-12 14:00:00 7.5 11 Oeste 20 Sudoeste 0 -- -- 84
2018-11-12 13:00:00 7.1 9 Oeste 14 Sudoeste 0 -- -- 90
2018-11-12 12:00:00 6.7 3 Noroeste 9 Sudoeste 0 -- -- 88
2018-11-12 11:00:00 5.4 3 Oeste 12 Sur 0 -- -- 95
2018-11-12 10:00:00 4.3 5 Sur 13 Sur 0 -- -- 99
2018-11-12 09:00:00 3 10 Sur 17 Sudeste 0 -- -- 100
2018-11-12 08:00:00 3 4 Oeste 13 Sudoeste 0 -- -- 99
2018-11-12 07:00:00 3.3 5 Sudoeste 20 Sudoeste 0 -- -- 99
2018-11-12 06:00:00 3.7 10 Sudoeste 23 Oeste 0 -- -- 98
2018-11-12 05:00:00 3.7 13 Sudoeste 23 Sudoeste 0 -- -- 98
2018-11-12 04:00:00 3.8 9 Sudoeste 15 Sudoeste 0 -- -- 99
2018-11-12 03:00:00 4 6 Sudoeste 13 Sudoeste 0 -- -- 96
2018-11-12 02:00:00 4.2 6 Sudoeste 14 Sudoeste 0 -- -- 98
2018-11-12 01:00:00 4.3 4 Sudoeste 12 Sur 0 -- -- 99
2018-11-12 00:00:00 4.3 6 Sur 14 Sudeste 0 -- -- 100
2018-11-11 23:00:00 4.4 3 Sudeste 9 Sudoeste 0 -- -- 99
2018-11-11 22:00:00 4.5 4 Oeste 15 Sudoeste 0 -- -- 97
2018-11-11 21:00:00 4.7 8 Sudoeste 18 Sur 0.2 -- -- 96
2018-11-11 20:00:00 5.1 8 Sur 20 Sur 0.2 -- -- 95
2018-11-11 19:00:00 5.2 12 Sur 22 Sudoeste 0 -- -- 97
2018-11-11 18:00:00 5.1 10 Sudeste 20 Sudoeste 0.6 -- -- 98
2018-11-11 17:00:00 5.9 11 Sur 28 Sudoeste 0.4 -- -- 95
2018-11-11 16:00:00 6.3 15 Sur 33 Sur 0 -- -- 98
2018-11-11 15:00:00 6.6 9 Sur 25 Sudoeste 0.6 -- -- 100
2018-11-11 14:00:00 6.8 7 Sudoeste 23 Sudeste 2.6 -- -- 100
2018-11-11 13:00:00 7.2 5 Sur 35 Oeste 3.4 -- -- 100
2018-11-11 12:00:00 7.5 10 Sudoeste 33 Sur 2.2 -- -- 100
2018-11-11 11:00:00 7.8 12 Sudoeste 35 Sudoeste 0 -- -- 100
2018-11-11 10:00:00 8.1 14 Sudoeste 42 Sudoeste 0 -- -- 100
2018-11-11 09:00:00 8.2 15 Sudoeste 56 Sudoeste 0 -- -- 100
2018-11-11 08:00:00 8.1 21 Sur 67 Sur 0.2 -- -- 100
2018-11-11 07:00:00 8.1 26 Sur 55 Sur 5 -- -- 100
2018-11-11 06:00:00 8 17 Sudoeste 61 Sudoeste 1 -- -- 98
2018-11-11 05:00:00 8 22 Sur 53 Sudoeste 0.2 -- -- 96
2018-11-11 04:00:00 8 20 Sur 59 Sur 0 -- -- 97
2018-11-11 03:00:00 7.8 16 Sur 49 Sudoeste 0 -- -- 99
2018-11-11 02:00:00 7.6 18 Sur 55 Sudoeste 0.2 -- -- 99
2018-11-11 01:00:00 7.4 20 Sudoeste 62 Sudoeste 0 -- -- 99
2018-11-11 00:00:00 7.4 21 Sur 49 Sudoeste 0 -- -- 96
2018-11-10 23:00:00 7.7 21 Sur 57 Sudoeste 0 -- -- 92
2018-11-10 22:00:00 7.4 19 Sur 51 Sudoeste 0.2 -- -- 95
2018-11-10 21:00:00 7.2 16 Sur 45 Sudoeste 0 -- -- 97
2018-11-10 20:00:00 6.9 14 Sur 44 Sudoeste 0 -- -- 98
2018-11-10 19:00:00 7.1 17 Sudoeste 47 Sudoeste 0 -- -- 95
2018-11-10 18:00:00 7.4 20 Sudoeste 51 Oeste 0 -- -- 89
2018-11-10 17:00:00 7.6 20 Sudoeste 49 Sudoeste 0 -- -- 91
2018-11-10 16:00:00 7.7 19 Sudoeste 53 Sur 0 -- -- 97
2018-11-10 15:00:00 7.6 17 Sur 51 Sudoeste 0 -- -- 97
2018-11-10 14:00:00 8.1 19 Sudoeste 46 Oeste 0.2 -- -- 99
2018-11-10 13:00:00 8.2 21 Oeste 66 Sudoeste 2 -- -- 100
2018-11-10 12:00:00 7.8 18 Sudoeste 51 Sudoeste 0.8 -- -- 100
2018-11-10 11:00:00 7.2 14 Sur 39 Sur 0 -- -- 91
2018-11-10 10:00:00 7.2 18 Sudoeste 55 Sur 0 -- -- 91
2018-11-10 09:00:00 6.8 21 Sudoeste 50 Sur 0 -- -- 90
2018-11-10 08:00:00 6.4 21 Sudoeste 50 Sudoeste 0 -- -- 95
2018-11-10 07:00:00 7.4 19 Sudoeste 49 Sudoeste 0 -- -- 100
2018-11-10 06:00:00 8.3 20 Sudoeste 55 Sudoeste 0.2 -- -- 100
2018-11-10 05:00:00 8.3 14 Sur 41 Sur 2.2 -- -- 100
2018-11-10 04:00:00 8.9 10 Sur 39 Sudoeste 5.2 -- -- 100
2018-11-10 03:00:00 10 13 Sur 44 Sudoeste 2 -- -- 100
2018-11-10 02:00:00 9.9 19 Sudoeste 54 Sudoeste 2 -- -- 100
2018-11-10 01:00:00 9.9 26 Sur 69 Sudoeste 1.4 -- -- 100
2018-11-10 00:00:00 9.8 30 Sur 75 Sudoeste 0.8 -- -- 100
2018-11-09 23:00:00 9.7 25 Sur 58 Sudoeste 1.6 -- -- 100
2018-11-09 22:00:00 9.6 25 Sur 66 Sur 0.4 -- -- 100
2018-11-09 21:00:00 9.4 25 Sur 58 Sudoeste 0.2 -- -- 100
2018-11-09 20:00:00 9.2 27 Sur 70 Sur 0.4 -- -- 100
2018-11-09 19:00:00 8.9 22 Sur 68 Sudoeste 0.8 -- -- 100
2018-11-09 18:00:00 8.5 26 Sur 69 Sudoeste 0.8 -- -- 100
2018-11-09 17:00:00 8 26 Sur 78 Sudoeste 0.4 -- -- 99
2018-11-09 16:00:00 7.5 30 Sur 75 Sudoeste 0 -- -- 98
2018-11-09 15:00:00 7.3 36 Sur 91 Sudoeste 0.2 -- -- 97
2018-11-09 14:00:00 7.1 33 Sur 68 Sur 0 -- -- 94
2018-11-09 13:00:00 6.7 24 Sur 54 Sur 0 -- -- 94
2018-11-09 12:00:00 5.6 27 Sur 59 Sur 0 -- -- 94
2018-11-09 11:00:00 5.6 21 Sur 51 Sur 0 -- -- 91
2018-11-09 10:00:00 4.5 18 Sur 51 Sudeste 0 -- -- 96
2018-11-09 09:00:00 3.4 17 Sur 41 Sudoeste 0 -- -- 99
2018-11-09 08:00:00 3.1 16 Sur 36 Sur 0 -- -- 100
2018-11-09 07:00:00 2.8 8 Sur 30 Sudoeste 0 -- -- 100
2018-11-09 06:00:00 2.7 9 Sudoeste 28 Sur 0 -- -- 100
2018-11-09 05:00:00 2.6 9 Sudoeste 28 Sudoeste 0 -- -- 100
2018-11-09 04:00:00 2.7 8 Sudoeste 26 Sudoeste 0 -- -- 100
2018-11-09 03:00:00 3 9 Sudoeste 25 Sur 0 -- -- 100
2018-11-09 02:00:00 3.1 9 Oeste 32 Oeste 0 -- -- 100
2018-11-09 01:00:00 3.1 9 Oeste 31 Oeste 0.2 -- -- 100
2018-11-09 00:00:00 3.2 13 Oeste 33 Sudoeste 1.4 -- -- 100
2018-11-08 23:00:00 3.1 17 Oeste 44 Oeste 1.6 -- -- 100
2018-11-08 22:00:00 3.2 13 Sudoeste 37 Oeste 0.8 -- -- 100
2018-11-08 21:00:00 3 10 Sudoeste 31 Sudoeste 0 -- -- 99
2018-11-08 20:00:00 3 9 Sur 26 Sudoeste 0 -- -- 99
2018-11-08 19:00:00 3 8 Sur 31 Oeste 0.8 -- -- 99
2018-11-08 18:00:00 3.5 17 Sudoeste 41 Sudoeste 0.2 -- -- 95
2018-11-08 17:00:00 3.9 17 Sur 38 Sudoeste 0.2 -- -- 95
2018-11-08 16:00:00 3.7 17 Sudoeste 45 Sur 2.4 -- -- 97
2018-11-08 15:00:00 5.3 10 Sur 44 Sur 0.2 -- -- 94
2018-11-08 14:00:00 4.1 21 Sur 49 Sudoeste 1.2 -- -- 96
2018-11-08 13:00:00 5.3 19 Sur 42 Sur 1.2 -- -- 94
2018-11-08 12:00:00 5.9 17 Sudeste 33 Sur 0 -- -- 87
2018-11-08 11:00:00 5 8 Sudeste 42 Sudeste 0 -- -- 93
2018-11-08 10:00:00 5.8 22 Sur 46 Sur 0.2 -- -- 79
2018-11-08 09:00:00 4.8 13 Sur 40 Sur 0 -- -- 82
2018-11-08 08:00:00 3.6 10 Sudeste 30 Sudoeste 0 -- -- 86
2018-11-08 07:00:00 3.4 9 Sudeste 24 Sudeste 0 -- -- 86
2018-11-08 06:00:00 3.4 9 Sur 23 Sudeste 0 -- -- 84
2018-11-08 05:00:00 3.7 10 Sur 23 Sudeste 0 -- -- 82
2018-11-08 04:00:00 3.4 9 Sudeste 24 Sudeste 0 -- -- 82
2018-11-08 03:00:00 3.4 13 Sudeste 24 Sudeste 0 -- -- 84
2018-11-08 02:00:00 3.5 12 Sur 23 Sur 0 -- -- 79
2018-11-08 01:00:00 3.7 15 Sur 27 Sur 0 -- -- 81
2018-11-08 00:00:00 3.7 13 Sur 27 Sur 0 -- -- 84
2018-11-07 23:00:00 3.7 15 Sur 32 Sudoeste 0 -- -- 88
2018-11-07 22:00:00 3.7 16 Sur 30 Sur 0 -- -- 92
2018-11-07 21:00:00 3.9 14 Sur 30 Sudoeste 0 -- -- 93
2018-11-07 20:00:00 3.8 12 Sur 28 Sudoeste 0 -- -- 92
2018-11-07 19:00:00 4.1 13 Sur 30 Sudoeste 0 -- -- 94
2018-11-07 18:00:00 4.6 10 Sur 29 Sudoeste 0 -- -- 90
2018-11-07 17:00:00 5.3 5 Sur 19 Oeste 0 -- -- 92
2018-11-07 16:00:00 5.2 8 Sudoeste 24 Oeste 0 -- -- 95
2018-11-07 15:00:00 4.8 11 Sudoeste 26 Oeste 0.8 -- -- 99
2018-11-07 14:00:00 4.8 6 Sur 25 Sudoeste 0 -- -- 100
2018-11-07 13:00:00 3.4 10 Oeste 35 Oeste 0.2 -- -- 100
2018-11-07 12:00:00 3.3 9 Sudoeste 32 Sudoeste 1 -- -- 100
2018-11-07 11:00:00 3.8 10 Sudoeste 29 Oeste 0 -- -- 100
2018-11-07 10:00:00 3.4 10 Sudoeste 40 Sudoeste 0.2 -- -- 100
2018-11-07 09:00:00 3.4 12 Sur 41 Sudoeste 0 -- -- 100
2018-11-07 08:00:00 3.2 18 Sur 45 Sur 0 -- -- 100
2018-11-07 07:00:00 3.9 14 Sur 41 Sudoeste 0 -- -- 100
2018-11-07 06:00:00 4 14 Sur 42 Oeste 1.8 -- -- 100
2018-11-07 05:00:00 4.4 15 Sur 43 Sudoeste 2.2 -- -- 99
2018-11-07 04:00:00 4.9 16 Sur 45 Sudoeste 0 -- -- 96
2018-11-07 03:00:00 5.1 16 Sur 50 Sudoeste 0 -- -- 97
2018-11-07 02:00:00 5.9 18 Sudoeste 51 Oeste 0 -- -- 99
2018-11-07 01:00:00 6.2 18 Sudoeste 56 Sudoeste 1 -- -- 100
2018-11-07 00:00:00 6.9 18 Sudoeste 52 Oeste 6 -- -- 99
2018-11-06 23:00:00 7.5 18 Sudoeste 73 Sur 5.2 -- -- 99
2018-11-06 22:00:00 7.9 27 Sur 69 Sudoeste 1.6 -- -- 95
2018-11-06 21:00:00 7.8 23 Sur 68 Sur 0.6 -- -- 95
2018-11-06 20:00:00 7.8 27 Sur 69 Sur 1.4 -- -- 95
2018-11-06 19:00:00 7.7 27 Sur 68 Sur 1.4 -- -- 96
2018-11-06 18:00:00 8 26 Sur 68 Sudoeste 0 -- -- 94
2018-11-06 17:00:00 7.9 32 Sur 77 Sudoeste 0.2 -- -- 95
2018-11-06 16:00:00 7.4 25 Sur 60 Sur 0.2 -- -- 97
2018-11-06 15:00:00 7.3 25 Sur 63 Sudoeste 0 -- -- 98
2018-11-06 14:00:00 6.9 24 Sur 58 Sur 0 -- -- 99
2018-11-06 13:00:00 6.6 28 Sur 57 Sur 0 -- -- 99
2018-11-06 12:00:00 6 24 Sur 57 Sudoeste 0 -- -- 98
2018-11-06 11:00:00 6.4 21 Sur 57 Sudoeste 0 -- -- 100
2018-11-06 10:00:00 4.7 15 Sur 40 Sudoeste 0.4 -- -- 100
2018-11-06 09:00:00 3.9 15 Sur 46 Sudoeste 1 -- -- 100
2018-11-06 08:00:00 3.9 18 Sudoeste 44 Sudoeste 0.2 -- -- 100
2018-11-06 07:00:00 3.5 15 Sudoeste 47 Sudoeste 0 -- -- 100
2018-11-06 06:00:00 3.2 15 Sudoeste 38 Sudoeste 0 -- -- 100
2018-11-06 05:00:00 3 12 Sur 27 Oeste 0 -- -- 100
2018-11-06 04:00:00 3 9 Sur 32 Sudoeste 0.2 -- -- 100
2018-11-06 03:00:00 2.9 9 Sudoeste 28 Sudoeste 0 -- -- 100
2018-11-06 02:00:00 2.8 9 Oeste 36 Oeste 0 -- -- 100
2018-11-06 01:00:00 2.9 7 Sudoeste 29 Sudoeste 0 -- -- 100
2018-11-06 00:00:00 2.6 10 Oeste 46 Oeste 0 -- -- 100
2018-11-05 23:00:00 2.9 17 Oeste 42 Oeste 0 -- -- 100
2018-11-05 22:00:00 3.2 18 Oeste 44 Sudoeste 0 -- -- 100
2018-11-05 21:00:00 3.5 21 Oeste 50 Noroeste 0.2 -- -- 100
2018-11-05 20:00:00 3.6 20 Oeste 41 Oeste 1.4 -- -- 100
2018-11-05 19:00:00 3.8 16 Oeste 46 Sudoeste 0 -- -- 100
2018-11-05 18:00:00 3.7 18 Oeste 40 Noroeste 0 -- -- 100
2018-11-05 17:00:00 3.8 21 Oeste 45 Oeste 0.4 -- -- 100
2018-11-05 16:00:00 3.9 19 Oeste 45 Oeste 0.6 -- -- 100
2018-11-05 15:00:00 3.8 19 Oeste 42 Noroeste 3.8 -- -- 100
2018-11-05 14:00:00 3.4 17 Oeste 38 Sudoeste 4.8 -- -- 100
2018-11-05 13:00:00 2.4 3 Oeste 15 Oeste 2.8 -- -- 100
2018-11-05 12:00:00 2 11 Oeste 20 Oeste 4.2 -- -- 100
2018-11-05 11:00:00 2.2 10 Oeste 26 Oeste 5.8 -- -- 100
2018-11-05 10:00:00 3.6 4 Oeste 15 Sudoeste 0.2 -- -- 100
2018-11-05 09:00:00 3.2 5 Sur 16 Oeste 0 -- -- 100
2018-11-05 08:00:00 3.2 6 Sudoeste 21 Sudoeste 0 -- -- 99
2018-11-05 07:00:00 3.2 7 Sudoeste 24 Sudoeste 0 -- -- 99
2018-11-05 06:00:00 3.6 9 Sudoeste 31 Sudoeste 0 -- -- 99
2018-11-05 05:00:00 3.8 12 Sudoeste 34 Sudoeste 0 -- -- 99
2018-11-05 04:00:00 3.9 14 Sur 27 Sur 0 -- -- 98
2018-11-05 03:00:00 3.9 6 Sudoeste 24 Sudoeste 0.4 -- -- 97
2018-11-05 02:00:00 4 8 Sur 26 Sudoeste 1.4 -- -- 100
2018-11-05 01:00:00 4.5 11 Sudoeste 30 Oeste 5.2 -- -- 100
2018-11-05 00:00:00 5.6 12 Oeste 32 Sudoeste 2.4 -- -- 98
2018-11-04 23:00:00 6.5 20 Sur 32 Sur 0 -- -- 97
2018-11-04 22:00:00 6.3 10 Sudeste 35 Sur 3 -- -- 99
2018-11-04 21:00:00 7 17 Sur 39 Sudoeste 1.8 -- -- 96
2018-11-04 20:00:00 7.9 14 Sur 35 Sur 0.6 -- -- 95
2018-11-04 19:00:00 7.5 8 Sur 39 Sur 0.8 -- -- 99
2018-11-04 18:00:00 8.3 15 Sur 37 Sur 0.2 -- -- 99
2018-11-04 17:00:00 7.7 13 Sur 30 Sudeste 0.4 -- -- 100
2018-11-04 16:00:00 7.9 10 Sudeste 20 Sudeste 0 -- -- 99
2018-11-04 15:00:00 8.9 6 Sudeste 28 Sur 0 -- -- 98
2018-11-04 14:00:00 8.6 13 Sur 31 Sudoeste 0.2 -- -- 97
2018-11-04 13:00:00 7.2 13 Sur 32 Sur 0.6 -- -- 96
2018-11-04 12:00:00 6.8 8 Sur 31 Sur 0.8 -- -- 88
2018-11-04 11:00:00 7.8 10 Sudoeste 32 Sur 0.2 -- -- 77
2018-11-04 10:00:00 7.8 10 Sur 28 Oeste 0 -- -- 80
2018-11-04 09:00:00 9.3 8 Sur 30 Sur 0 -- -- 63
2018-11-04 08:00:00 6.6 8 Oeste 16 Oeste 0 -- -- 92
2018-11-04 07:00:00 6.8 4 Sudeste 16 Sudeste 0 -- -- 85
2018-11-04 06:00:00 7.3 6 Sudoeste 27 Sur 0 -- -- 86
2018-11-04 05:00:00 5.9 12 Oeste 17 Sudoeste 0 -- -- 98
2018-11-04 04:00:00 6.3 6 Sur 12 Sudoeste 0 -- -- 99
2018-11-04 03:00:00 5.8 10 Sudoeste 17 Sur 0 -- -- 100
2018-11-04 02:00:00 6.3 9 Oeste 28 Oeste 0 -- -- 100
2018-11-04 01:00:00 6.4 15 Sudoeste 27 Sudoeste 0 -- -- 100
2018-11-04 00:00:00 6.7 15 Oeste 24 Oeste 0 -- -- 100
2018-11-03 23:00:00 7.3 11 Sudoeste 15 Sudoeste 0 -- -- 85
2018-11-03 22:00:00 6.5 8 Sudoeste 12 Sudoeste 0 -- -- 100
2018-11-03 21:00:00 6.8 12 Sudoeste 18 Oeste 0 -- -- 100
2018-11-03 20:00:00 6.9 14 Sudoeste 17 Sudoeste 0 -- -- 100
2018-11-03 19:00:00 7.2 5 Sur 16 Sudoeste 0 -- -- 99
2018-11-03 18:00:00 8.7 6 Sudoeste 16 Oeste 0 -- -- 97
2018-11-03 17:00:00 8.9 16 Sudoeste 25 Oeste 0 -- -- 97
2018-11-03 16:00:00 9.1 16 Oeste 22 Oeste 0 -- -- 94
2018-11-03 15:00:00 9.8 16 Oeste 22 Sudoeste 0 -- -- 93
2018-11-03 14:00:00 12 9 Sudoeste 13 Sudoeste 0 -- -- 80
2018-11-03 13:00:00 11 6 Sudoeste 16 Sudoeste 0 -- -- 82
2018-11-03 12:00:00 11 8 Oeste 14 Sudoeste 0 -- -- 86
2018-11-03 11:00:00 10.7 10 Sudoeste 14 Sudoeste 0 -- -- 73
2018-11-03 10:00:00 8.8 4 Oeste 6 Oeste 0 -- -- 94
2018-11-03 09:00:00 7.1 3 Sudeste 10 Sur 0 -- -- 100
2018-11-03 08:00:00 6.3 4 Sudeste 12 Este 0 -- -- 100
2018-11-03 07:00:00 6.3 6 Sudeste 8 Sudeste 0 -- -- 100
2018-11-03 06:00:00 6.2 3 Oeste 9 Oeste 0 -- -- 100
2018-11-03 05:00:00 6.3 0 Calma 6 Oeste 0 -- -- 100
2018-11-03 04:00:00 6.3 0 Calma 7 Sudoeste 0 -- -- 100
2018-11-03 03:00:00 6.3 0 Calma 5 Sudeste 0 -- -- 100
2018-11-03 02:00:00 6.8 2 Sudeste 9 Sudeste 0 -- -- 100
2018-11-03 01:00:00 7.3 3 Sudeste 8 Sudeste 0 -- -- 100
2018-11-03 00:00:00 8.1 3 Este 10 Sudeste 0 -- -- 100
2018-11-02 23:00:00 8.4 4 Este 8 Nordeste 0 -- -- 100
2018-11-02 22:00:00 8.9 3 Este 11 Nordeste 0 -- -- 100
2018-11-02 21:00:00 9 3 Este 8 Nordeste 0 -- -- 100
2018-11-02 20:00:00 9.4 4 Norte 9 Nordeste 0 -- -- 100
2018-11-02 19:00:00 9.4 5 Noroeste 11 Noroeste 0 -- -- 100
2018-11-02 18:00:00 9.9 7 Oeste 14 Oeste 0 -- -- 100
2018-11-02 17:00:00 10.4 8 Oeste 15 Oeste 0 -- -- 100
2018-11-02 16:00:00 10.7 9 Oeste 15 Oeste 0 -- -- 100
2018-11-02 15:00:00 10.3 9 Oeste 15 Sudoeste 0 -- -- 100
2018-11-02 14:00:00 9.9 10 Oeste 15 Oeste 0 -- -- 100
2018-11-02 13:00:00 9.9 8 Oeste 14 Oeste 1.2 -- -- 100
2018-11-02 12:00:00 9.6 4 Oeste 18 Noroeste 0 -- -- 100
2018-11-02 11:00:00 9.3 8 Oeste 19 Oeste 0.4 -- -- 100
2018-11-02 10:00:00 9.1 10 Oeste 22 Oeste 0 -- -- 100
2018-11-02 09:00:00 8.9 8 Oeste 22 Oeste 0.2 -- -- 100
2018-11-02 08:00:00 8.8 10 Oeste 24 Oeste 0.6 -- -- 100
2018-11-02 07:00:00 8.8 13 Oeste 30 Oeste 0.8 -- -- 100
2018-11-02 06:00:00 8.8 16 Oeste 31 Oeste 1.2 -- -- 100
2018-11-02 05:00:00 9.1 14 Oeste 30 Oeste 1.6 -- -- 100
2018-11-02 04:00:00 9.3 14 Oeste 36 Sudoeste 1.6 -- -- 100
2018-11-02 03:00:00 9.2 9 Oeste 31 Oeste 2 -- -- 100
2018-11-02 02:00:00 8.9 10 Oeste 33 Oeste 3.2 -- -- 100
2018-11-02 01:00:00 8.8 11 Sudoeste 42 Sudoeste 1 -- -- 100
2018-11-02 00:00:00 8.5 12 Sudoeste 33 Sudoeste 1.6 -- -- 100
2018-11-01 23:00:00 8 11 Sur 37 Sudoeste 0.4 -- -- 100
2018-11-01 22:00:00 7.6 16 Sur 46 Sudoeste 0.6 -- -- 100
2018-11-01 21:00:00 7.2 13 Sudoeste 47 Oeste 1 -- -- 100
2018-11-01 20:00:00 6.6 11 Sur 33 Sudoeste 0.8 -- -- 100
2018-11-01 19:00:00 6 14 Sudoeste 37 Sudoeste 0.6 -- -- 100
2018-11-01 18:00:00 5.4 10 Sudoeste 26 Sudoeste 0.2 -- -- 100
2018-11-01 17:00:00 4.9 7 Sur 26 Sur 0 -- -- 99
2018-11-01 16:00:00 5.5 10 Sudoeste 23 Sudoeste 0 -- -- 92
2018-11-01 15:00:00 5.7 7 Sur 25 Sudoeste 0 -- -- 90
2018-11-01 14:00:00 6.1 9 Sudoeste 23 Sur 0 -- -- 87
2018-11-01 13:00:00 5 14 Sudoeste 24 Oeste 0 -- -- 100
2018-11-01 12:00:00 4.6 7 Sudoeste 17 Sur 0 -- -- 100
2018-11-01 11:00:00 4.3 4 Sudoeste 12 Sur 0 -- -- 100
2018-11-01 10:00:00 3.7 3 Sur 8 Sudoeste 0 -- -- 100
2018-11-01 09:00:00 3.2 3 Sudoeste 9 Sudoeste 0 -- -- 100
2018-11-01 08:00:00 3 4 Sudoeste 10 Oeste 0 -- -- 100
2018-11-01 07:00:00 3 3 Oeste 15 Oeste 0 -- -- 100
2018-11-01 06:00:00 3 7 Oeste 16 Oeste 0 -- -- 100
2018-11-01 05:00:00 3.3 8 Oeste 14 Oeste 0.2 -- -- 100
2018-11-01 04:00:00 3.5 8 Oeste 13 Oeste 0.2 -- -- 100
2018-11-01 03:00:00 3.3 6 Oeste 13 Oeste 0.2 -- -- 100
2018-11-01 02:00:00 3.5 5 Oeste 9 Oeste 0 -- -- 100
2018-11-01 01:00:00 3.4 5 Oeste 8 Noroeste 0 -- -- 98
2018-11-01 00:00:00 3.1 4 Noroeste 10 Oeste 0 -- -- 97
2018-10-31 23:00:00 3.3 5 Noroeste 9 Noroeste 0 -- -- 94
2018-10-31 22:00:00 3.4 4 Noroeste 8 Nordeste 0 -- -- 95
2018-10-31 21:00:00 3.5 3 Norte 9 Norte 0 -- -- 93
2018-10-31 20:00:00 3.8 3 Nordeste 12 Noroeste 0 -- -- 92
2018-10-31 19:00:00 4.3 6 Noroeste 11 Noroeste 0 -- -- 83
2018-10-31 18:00:00 4.5 4 Noroeste 9 Noroeste 0 -- -- 86
2018-10-31 17:00:00 4.8 5 Noroeste 12 Noroeste 0 -- -- 85
2018-10-31 16:00:00 5.6 6 Noroeste 15 Oeste 0 -- -- 87
2018-10-31 15:00:00 6.2 8 Oeste 15 Oeste 0 -- -- 82
2018-10-31 14:00:00 6.5 7 Oeste 16 Oeste 0 -- -- 89
2018-10-31 13:00:00 5 3 Norte 11 Oeste 0 -- -- 99
2018-10-31 12:00:00 4.5 0 Calma 9 Sur 0 -- -- 100
2018-10-31 11:00:00 3.8 4 Sudoeste 11 Sudoeste 0 -- -- 100
2018-10-31 10:00:00 3.1 6 Sur 14 Sudeste 0 -- -- 100
2018-10-31 09:00:00 2.3 4 Sudoeste 18 Oeste 0 -- -- 100
2018-10-31 08:00:00 2.6 4 Sudeste 29 Oeste 0.2 -- -- 100
2018-10-31 07:00:00 2.9 14 Oeste 26 Sudoeste 1.2 -- -- 100
2018-10-31 06:00:00 3.5 5 Oeste 21 Oeste 0.6 -- -- 100
2018-10-31 05:00:00 3.5 8 Oeste 22 Oeste 1.4 -- -- 100
2018-10-31 04:00:00 3.4 6 Oeste 17 Oeste 1 -- -- 100
2018-10-31 03:00:00 3.3 8 Sudoeste 19 Sudoeste 0.4 -- -- 100
2018-10-31 02:00:00 3 5 Sur 15 Sudoeste 0.2 -- -- 100
2018-10-31 01:00:00 3 8 Sudoeste 18 Sudoeste 0.2 -- -- 100
2018-10-31 00:00:00 2.9 7 Sudoeste 13 Sudoeste 0 -- -- 100
2018-10-30 23:00:00 3 2 Sudeste 12 Oeste 0 -- -- 100
2018-10-30 22:00:00 3 5 Sudoeste 13 Oeste 0 -- -- 100
2018-10-30 21:00:00 2.9 7 Oeste 12 Oeste 0 -- -- 100
2018-10-30 20:00:00 2.9 8 Oeste 16 Oeste 0 -- -- 100
2018-10-30 19:00:00 2.7 8 Oeste 14 Noroeste 0 -- -- 100
2018-10-30 18:00:00 2.8 7 Oeste 16 Oeste 1.6 -- -- 100
2018-10-30 17:00:00 2.9 10 Oeste 20 Sudoeste 3.4 -- -- 100
2018-10-30 16:00:00 3.3 8 Oeste 18 Oeste 0.6 -- -- 97
2018-10-30 15:00:00 4.6 3 Noroeste 12 Sudoeste 0 -- -- 98
2018-10-30 14:00:00 4.3 4 Oeste 10 Noroeste 0 -- -- 98
2018-10-30 13:00:00 3.7 2 Oeste 6 Sudoeste 0 -- -- 100
2018-10-30 12:00:00 3.6 2 Este 8 Este 0 -- -- 100
2018-10-30 11:00:00 3 0 Calma 7 Sudoeste 0 -- -- 100
2018-10-30 10:00:00 2.1 5 Oeste 17 Sudoeste 0.8 -- -- 100
2018-10-30 09:00:00 2.1 12 Oeste 25 Sudoeste 1 -- -- 100
2018-10-30 08:00:00 2.4 10 Oeste 25 Oeste 2.8 -- -- 100
2018-10-30 07:00:00 2.7 15 Sur 25 Sur 1 -- -- 100
2018-10-30 06:00:00 2.6 13 Sur 34 Sur 1.8 -- -- 100
2018-10-30 05:00:00 2.7 17 Sur 40 Sur 2.6 -- -- 100
2018-10-30 04:00:00 2.6 14 Sur 42 Sur 3 -- -- 98
2018-10-30 03:00:00 2.5 21 Sur 40 Sur 3.6 -- -- 99
2018-10-30 02:00:00 2.3 21 Sur 40 Sur 2.6 -- -- 100
2018-10-30 01:00:00 1.8 18 Sur 38 Sur 2.6 -- -- 100
2018-10-30 00:00:00 1.2 21 Sur 47 Sudoeste 2.4 -- -- 100
2018-10-29 23:00:00 1.1 22 Sur 44 Sur 1.4 -- -- 100
2018-10-29 22:00:00 0.8 16 Sur 44 Sudoeste 1.6 -- -- 100
2018-10-29 21:00:00 1 13 Sudoeste 32 Sudoeste 1.2 -- -- 100
2018-10-29 20:00:00 1.2 12 Sudoeste 28 Oeste 1.4 -- -- 100
2018-10-29 19:00:00 1.4 7 Sur 23 Sudoeste 1.4 -- -- 100
2018-10-29 18:00:00 1.6 5 Sur 18 Sudoeste 2 -- -- 100
2018-10-29 17:00:00 2 4 Sudoeste 16 Sur 2 -- -- 100
2018-10-29 16:00:00 1.8 5 Sudoeste 15 Oeste 2 -- -- 100
2018-10-29 15:00:00 1.4 5 Oeste 24 Sudoeste 1.2 -- -- 100
2018-10-29 14:00:00 0.8 8 Oeste 22 Sudoeste 1 -- -- 100
2018-10-29 13:00:00 0.4 9 Oeste 24 Oeste 1 -- -- 100
2018-10-29 12:00:00 0.4 12 Oeste 22 Sudoeste 0.8 -- -- 100
2018-10-29 11:00:00 0.2 0 Calma 8 Oeste 0 -- -- 100
2018-10-29 10:00:00 -0.2 6 Oeste 12 Oeste 0 -- -- 100
2018-10-29 09:00:00 -0.5 5 Oeste 9 Oeste 0 -- -- 100
2018-10-29 08:00:00 -0.7 5 Oeste 9 Noroeste 0 -- -- 100
2018-10-29 07:00:00 -0.9 6 Oeste 9 Noroeste 0.2 -- -- 100
2018-10-29 06:00:00 -0.7 3 Norte 12 Noroeste 0 -- -- 100
2018-10-29 05:00:00 -0.5 3 Noroeste 13 Noroeste 0 -- -- 100
2018-10-29 04:00:00 -0.8 4 Norte 19 Nordeste 0 -- -- 100
2018-10-29 03:00:00 -0.7 5 Norte 24 Norte 0 -- -- 100
2018-10-29 02:00:00 -0.5 4 Nordeste 22 Noroeste 0 -- -- 100
2018-10-29 01:00:00 -0.9 12 Oeste 18 Oeste 0 -- -- 100
2018-10-29 00:00:00 -0.7 7 Noroeste 16 Noroeste 0 -- -- 100
2018-10-28 23:00:00 -0.9 8 Oeste 14 Oeste 0 -- -- 100
2018-10-28 22:00:00 -0.8 5 Norte 22 Oeste 0 -- -- 100
2018-10-28 21:00:00 -0.8 6 Noroeste 17 Noroeste 0 -- -- 100
2018-10-28 20:00:00 -0.8 7 Noroeste 24 Noroeste 0 -- -- 100
2018-10-28 19:00:00 -1 14 Oeste 26 Oeste 0 -- -- 100
2018-10-28 18:00:00 -0.5 8 Oeste 20 Nordeste 0.4 -- -- 100
2018-10-28 17:00:00 -0.3 4 Norte 16 Norte 1 -- -- 100
2018-10-28 16:00:00 -0.2 6 Norte 27 Nordeste 1.2 -- -- 100
2018-10-28 15:00:00 0 7 Nordeste 28 Nordeste 0.8 -- -- 100
2018-10-28 14:00:00 0.3 8 Nordeste 25 Nordeste 1.6 -- -- 100
2018-10-28 13:00:00 0.5 0 Calma -- -- 0.6 -- -- 100
2018-10-28 12:00:00 -0.7 0 Calma -- -- 0 -- -- 100
2018-10-28 11:00:00 -0.6 0 Calma -- -- 0 -- -- 100
2018-10-28 10:00:00 -0.8 0 Calma -- -- 0 -- -- 100
2018-10-28 09:00:00 -1.3 0 Calma -- -- 0 -- -- 100
2018-10-28 08:00:00 -1.2 0 Calma -- -- 0 -- -- 100
2018-10-28 07:00:00 -1.3 0 Calma -- -- 0 -- -- 100
2018-10-28 06:00:00 -1.4 0 Calma -- -- 0 -- -- 100
2018-10-28 05:00:00 -1.5 0 Calma -- -- 0 -- -- 100
2018-10-28 04:00:00 -1.6 0 Calma 13 Noroeste 0 -- -- 100
2018-10-28 03:00:00 -1.4 7 Norte 20 Norte 0 -- -- 100
2018-10-28 02:00:00 -1.5 6 Nordeste 28 Norte 0 -- -- 100
2018-10-28 01:00:00 -1.2 9 Nordeste 26 Nordeste 0 -- -- 100
2018-10-28 00:00:00 -1 5 Norte 24 Noroeste 0 -- -- 100
2018-10-27 23:00:00 -1.1 11 Noroeste 23 Norte 0 -- -- 100
2018-10-27 22:00:00 -1.1 10 Noroeste 22 Noroeste 0 -- -- 100
2018-10-27 21:00:00 -1 12 Oeste 28 Norte 0 -- -- 100
2018-10-27 20:00:00 -0.4 12 Noroeste 23 Norte 0 -- -- 100
2018-10-27 19:00:00 -0.3 7 Noroeste 22 Nordeste 0.2 -- -- 100
2018-10-27 18:00:00 -0.1 7 Nordeste 27 Nordeste 0.8 -- -- 100
2018-10-27 17:00:00 0 6 Nordeste 31 Noroeste 0.6 -- -- 100
2018-10-27 16:00:00 1.6 7 Noroeste 22 Noroeste 0.4 -- -- 99
2018-10-27 15:00:00 1.4 9 Norte 24 Noroeste 0.4 -- -- 100
2018-10-27 14:00:00 2.1 10 Noroeste 30 Norte 0.2 -- -- 99
2018-10-27 13:00:00 1.8 10 Noroeste 23 Nordeste 0.4 -- -- 100
2018-10-27 12:00:00 2.2 8 Norte 22 Noroeste 0 -- -- 100
2018-10-27 11:00:00 2.2 6 Nordeste 21 Norte 0.4 -- -- 100
2018-10-27 10:00:00 2 7 Nordeste 21 Nordeste 0 -- -- 100
2018-10-27 09:00:00 1.5 8 Norte 30 Norte 0.2 -- -- 100
2018-10-27 08:00:00 1.6 4 Nordeste 28 Nordeste 0.6 -- -- 100
2018-10-27 07:00:00 2.4 9 Nordeste 30 Nordeste 0.2 -- -- 100
2018-10-27 06:00:00 2.7 8 Nordeste 27 Norte 0.8 -- -- 100
2018-10-27 05:00:00 2.9 4 Norte 22 Nordeste 0.8 -- -- 100
2018-10-27 04:00:00 3.2 9 Nordeste 30 Nordeste 0 -- -- 100
2018-10-27 03:00:00 3.9 11 Nordeste 32 Nordeste 0 -- -- 100
2018-10-27 02:00:00 5.5 9 Nordeste 33 Norte 0.6 -- -- 100
2018-10-27 01:00:00 6 6 Nordeste 26 Nordeste 0 -- -- 100
2018-10-27 00:00:00 6.2 9 Nordeste 31 Nordeste 0 -- -- 100
2018-10-26 23:00:00 6.4 10 Nordeste 38 Nordeste 0 -- -- 99
2018-10-26 22:00:00 7.7 10 Nordeste 30 Nordeste 0 -- -- 97
2018-10-26 21:00:00 8.4 9 Nordeste 23 Nordeste 0 -- -- 89
2018-10-26 20:00:00 8.6 8 Nordeste 31 Nordeste 0 -- -- 88
2018-10-26 19:00:00 9.3 9 Nordeste 21 Nordeste 0 -- -- 92
2018-10-26 18:00:00 10.2 6 Nordeste 21 Nordeste 0 -- -- 89
2018-10-26 17:00:00 10.6 5 Nordeste 18 Norte 0 -- -- 88
2018-10-26 16:00:00 10.6 3 Nordeste 22 Este 0 -- -- 91
2018-10-26 15:00:00 10.3 4 Nordeste 15 Nordeste 0 -- -- 92
2018-10-26 14:00:00 11.4 4 Nordeste 9 Norte 0 -- -- 86
2018-10-26 13:00:00 13.5 0 Calma 6 Norte 0 -- -- 68
2018-10-26 12:00:00 12.6 0 Calma 5 Norte 0 -- -- 74
2018-10-26 11:00:00 12.6 0 Calma 5 Oeste 0 -- -- 72
2018-10-26 10:00:00 11.3 4 Oeste 5 Oeste 0 -- -- 75
2018-10-26 09:00:00 10.3 2 Noroeste 5 Noroeste 0 -- -- 72
2018-10-26 08:00:00 10.5 0 Calma 8 Sudoeste 0 -- -- 70
2018-10-26 07:00:00 10.8 6 Sudoeste 8 Sudoeste 0 -- -- 71
2018-10-26 06:00:00 10.7 0 Calma 4 Noroeste 0 -- -- 78
2018-10-26 05:00:00 11.2 3 Norte 5 Noroeste 0 -- -- 77
2018-10-26 04:00:00 11.3 2 Noroeste 6 Sudoeste 0 -- -- 79
2018-10-26 03:00:00 11.3 0 Calma 5 Sudoeste 0 -- -- 76
2018-10-26 02:00:00 10.7 0 Calma 4 Sudeste 0 -- -- 81
2018-10-26 01:00:00 10.7 0 Calma 5 Sudeste 0 -- -- 82
2018-10-26 00:00:00 10.6 2 Este 7 Este 0 -- -- 82
2018-10-25 23:00:00 10.9 0 Calma 6 Sudeste 0 -- -- 75
2018-10-25 22:00:00 10.9 0 Calma 5 Este 0 -- -- 72
2018-10-25 21:00:00 11.8 0 Calma 9 Oeste 0 -- -- 68
2018-10-25 20:00:00 12.5 7 Oeste 12 Oeste 0 -- -- 64
2018-10-25 19:00:00 14.3 9 Oeste 17 Oeste 0 -- -- 64
2018-10-25 18:00:00 15.9 10 Oeste 17 Oeste 0 -- -- 54
2018-10-25 17:00:00 16.7 11 Oeste 20 Oeste 0 -- -- 51
2018-10-25 16:00:00 17 11 Oeste 18 Oeste 0 -- -- 52
2018-10-25 15:00:00 17.5 8 Oeste 15 Sudoeste 0 -- -- 47
2018-10-25 14:00:00 17.9 4 Noroeste 9 Oeste 0 -- -- 46
2018-10-25 13:00:00 17.6 3 Oeste 7 Noroeste 0 -- -- 49
2018-10-25 12:00:00 15.8 3 Sudeste 7 Sur 0 -- -- 55
2018-10-25 11:00:00 14.6 4 Sudoeste 14 Oeste 0 -- -- 50
2018-10-25 10:00:00 13 9 Oeste 13 Sudoeste 0 -- -- 51
2018-10-25 09:00:00 13.9 7 Sur 18 Sur 0 -- -- 46
2018-10-25 08:00:00 14.6 13 Sur 18 Sudeste 0 -- -- 44
2018-10-25 07:00:00 15.1 12 Sudeste 16 Sudeste 0 -- -- 35
2018-10-25 06:00:00 13.8 8 Sur 10 Sur 0 -- -- 37
2018-10-25 05:00:00 12.1 5 Sur 8 Sur 0 -- -- 50
2018-10-25 04:00:00 11.5 2 Sudeste 4 Este 0 -- -- 55
2018-10-25 03:00:00 11.6 3 Noroeste 4 Noroeste 0 -- -- 61
2018-10-25 02:00:00 11.5 0 Calma 5 Sudoeste 0 -- -- 61
2018-10-25 01:00:00 11.6 4 Sudoeste 10 Sudoeste 0 -- -- 62
2018-10-25 00:00:00 12 3 Sudoeste 10 Sudoeste 0 -- -- 65
2018-10-24 23:00:00 11.7 3 Sudeste 6 Sudeste 0 -- -- 56
2018-10-24 22:00:00 11.4 2 Sudeste 5 Nordeste 0 -- -- 71
2018-10-24 21:00:00 11.9 2 Este 6 Sur 0 -- -- 71
2018-10-24 20:00:00 12.4 2 Este 4 Norte 0 -- -- 66
2018-10-24 19:00:00 15.7 4 Noroeste 9 Noroeste 0 -- -- 54
2018-10-24 18:00:00 17.2 5 Norte 10 Oeste 0 -- -- 42
2018-10-24 17:00:00 17.3 5 Norte 10 Norte 0 -- -- 50
2018-10-24 16:00:00 17.3 4 Nordeste 9 Nordeste 0 -- -- 51
2018-10-24 15:00:00 18.6 0 Calma 12 Sudeste 0 -- -- 28
2018-10-24 14:00:00 18.2 4 Este 14 Sudeste 0 -- -- 27
2018-10-24 13:00:00 17.8 6 Sudeste 15 Sudeste 0 -- -- 34
2018-10-24 12:00:00 15.9 4 Sudeste 20 Sudeste 0 -- -- 35
2018-10-24 11:00:00 14.7 8 Sudeste 21 Sudeste 0 -- -- 32
2018-10-24 10:00:00 13.8 6 Sudeste 17 Este 0 -- -- 39
2018-10-24 09:00:00 11.3 3 Este 14 Este 0 -- -- 44
2018-10-24 08:00:00 9.9 3 Sur 6 Este 0 -- -- 56
2018-10-24 07:00:00 10.2 2 Nordeste 4 Nordeste 0 -- -- 70
2018-10-24 06:00:00 9.9 2 Sur 10 Nordeste 0 -- -- 69
2018-10-24 05:00:00 9.2 3 Este 6 Este 0 -- -- 72
2018-10-24 04:00:00 10.5 2 Este 18 Sudeste 0 -- -- 72
2018-10-24 03:00:00 10.8 6 Sudeste 17 Este 0 -- -- 72
2018-10-24 02:00:00 11.8 8 Sudeste 23 Este 0 -- -- 74
2018-10-24 01:00:00 10.8 4 Este 12 Este 0 -- -- 77
2018-10-24 00:00:00 11.3 3 Este 15 Este 0 -- -- 82
2018-10-23 23:00:00 11.9 4 Este 14 Este 0 -- -- 71
2018-10-23 22:00:00 10.5 3 Este 9 Sudeste 0 -- -- 89
2018-10-23 21:00:00 10.5 0 Calma 8 Nordeste 0 -- -- 89
2018-10-23 20:00:00 11.6 4 Nordeste 10 Este 0 -- -- 83
2018-10-23 19:00:00 12.4 0 Calma 7 Este 0 -- -- 79
2018-10-23 18:00:00 13.8 0 Calma 10 Este 0 -- -- 73
2018-10-23 17:00:00 14.6 2 Nordeste 9 Sur 0 -- -- 71
2018-10-23 16:00:00 14.6 2 Nordeste 12 Este 0 -- -- 71
2018-10-23 15:00:00 14.9 2 Este 15 Sudeste 0 -- -- 69
2018-10-23 14:00:00 14.1 3 Este 20 Este 0 -- -- 69
2018-10-23 13:00:00 13.5 5 Este 27 Este 0 -- -- 64
2018-10-23 12:00:00 10.7 5 Este 19 Este 0 -- -- 74
2018-10-23 11:00:00 9 4 Nordeste 26 Este 0 -- -- 85
2018-10-23 10:00:00 8.1 3 Nordeste 17 Nordeste 0 -- -- 88
2018-10-23 09:00:00 6.4 3 Este 15 Este 0 -- -- 92
2018-10-23 08:00:00 6.6 4 Nordeste 21 Nordeste 0 -- -- 92
2018-10-23 07:00:00 6.6 6 Nordeste 24 Este 0 -- -- 93
2018-10-23 06:00:00 6.7 6 Nordeste 25 Este 0 -- -- 95
2018-10-23 05:00:00 7.1 6 Nordeste 22 Nordeste 0 -- -- 96
2018-10-23 04:00:00 7.4 6 Nordeste 19 Nordeste 0 -- -- 94
2018-10-23 03:00:00 7.7 5 Nordeste 17 Este 0 -- -- 92
2018-10-23 02:00:00 8 5 Nordeste 22 Este 0 -- -- 92
2018-10-23 01:00:00 8.3 5 Nordeste 25 Este 0 -- -- 93
2018-10-23 00:00:00 8.7 7 Nordeste 30 Nordeste 0 -- -- 93
2018-10-22 23:00:00 9.3 6 Nordeste 26 Norte 0 -- -- 91
2018-10-22 22:00:00 9.9 7 Nordeste 24 Este 0 -- -- 87
2018-10-22 21:00:00 10.3 8 Nordeste 32 Nordeste 0 -- -- 83
2018-10-22 20:00:00 10.7 10 Nordeste 31 Este 0 -- -- 77
2018-10-22 19:00:00 11.5 11 Nordeste 29 Este 0 -- -- 71
2018-10-22 18:00:00 12.6 8 Nordeste 29 Norte 0 -- -- 70
2018-10-22 17:00:00 13.4 8 Nordeste 27 Este 0 -- -- 69
2018-10-22 16:00:00 13.8 8 Nordeste 31 Nordeste 0 -- -- 71
2018-10-22 15:00:00 14.4 7 Nordeste 26 Nordeste 0 -- -- 67
2018-10-22 14:00:00 14.2 6 Nordeste 20 Este 0 -- -- 76
2018-10-22 13:00:00 12.6 5 Nordeste 17 Este 0 -- -- 85
2018-10-22 12:00:00 10.8 4 Este 18 Nordeste 0 -- -- 100
2018-10-22 11:00:00 9.7 4 Nordeste 18 Sudeste 0 -- -- 100
2018-10-22 10:00:00 8.8 4 Nordeste 19 Sudeste 0 -- -- 100
2018-10-22 09:00:00 8.8 5 Nordeste 18 Este 0 -- -- 100
2018-10-22 08:00:00 9.2 4 Este 23 Este 0 -- -- 100
2018-10-22 07:00:00 9.4 4 Este 18 Este 0 -- -- 100
2018-10-22 06:00:00 9.7 4 Este 21 Nordeste 0 -- -- 100
2018-10-22 05:00:00 9.9 4 Este 20 Nordeste 0 -- -- 100
2018-10-22 04:00:00 10.3 3 Nordeste 15 Este 0 -- -- 100
2018-10-22 03:00:00 10.9 3 Este 11 Este 0 -- -- 100
2018-10-22 02:00:00 11.2 3 Este 12 Este 0 -- -- 99
2018-10-22 01:00:00 11.6 4 Nordeste 12 Nordeste 0 -- -- 98
2018-10-22 00:00:00 11.9 2 Este 9 Este 0 -- -- 96
2018-10-21 23:00:00 12.8 3 Este 8 Sudeste 0 -- -- 93
2018-10-21 22:00:00 13.4 3 Nordeste 10 Este 0 -- -- 88
2018-10-21 21:00:00 14 3 Nordeste 10 Este 0 -- -- 85
2018-10-21 20:00:00 15 4 Nordeste 12 Nordeste 0 -- -- 81
2018-10-21 19:00:00 16.2 5 Nordeste 13 Nordeste 0 -- -- 74
2018-10-21 18:00:00 17.1 2 Este 8 Este 0 -- -- 74
2018-10-21 17:00:00 17.2 0 Calma 10 Este 0 -- -- 73
2018-10-21 16:00:00 17.2 0 Calma 9 Nordeste 0 -- -- 72
2018-10-21 15:00:00 17 4 Nordeste 13 Nordeste 0 -- -- 72
2018-10-21 14:00:00 15.8 3 Nordeste 13 Este 0 -- -- 79
2018-10-21 13:00:00 13.9 5 Nordeste 13 Este 0 -- -- 81
2018-10-21 12:00:00 13.2 3 Este 15 Este 0 -- -- 84
2018-10-21 11:00:00 13.8 5 Este 23 Sudeste 0 -- -- 81
2018-10-21 10:00:00 12.8 4 Este 19 Este 0 -- -- 85
2018-10-21 09:00:00 11.6 7 Este 19 Este 0 -- -- 85
2018-10-21 08:00:00 11.3 5 Este 33 Sudeste 0 -- -- 87
2018-10-21 07:00:00 11.9 10 Este 28 Sudeste 0 -- -- 85
2018-10-21 06:00:00 12 9 Este 39 Sudeste 0 -- -- 85
2018-10-21 05:00:00 11.9 9 Este 37 Este 0 -- -- 87
2018-10-21 04:00:00 11.2 5 Este 25 Este 0 -- -- 92
2018-10-21 03:00:00 10.9 6 Este 22 Nordeste 0 -- -- 96
2018-10-21 02:00:00 10.1 3 Este 14 Nordeste 0 -- -- 100
2018-10-21 01:00:00 9.8 3 Nordeste 13 Este 0 -- -- 100
2018-10-21 00:00:00 10.1 2 Este 10 Este 0 -- -- 100
2018-10-20 23:00:00 10.3 3 Nordeste 12 Este 0 -- -- 99
2018-10-20 22:00:00 10.7 4 Este 12 Nordeste 0 -- -- 99
2018-10-20 21:00:00 11.3 2 Nordeste 10 Norte 0 -- -- 95
2018-10-20 20:00:00 12.3 7 Norte 12 Norte 0 -- -- 93
2018-10-20 19:00:00 13.4 0 Calma 9 Este 0 -- -- 84
2018-10-20 18:00:00 14.3 3 Nordeste 10 Nordeste 0 -- -- 79
2018-10-20 17:00:00 15.2 0 Calma 10 Este 0 -- -- 73
2018-10-20 16:00:00 14.7 0 Calma 10 Nordeste 0 -- -- 73
2018-10-20 15:00:00 14.5 3 Este 18 Este 0 -- -- 71
2018-10-20 14:00:00 14 3 Este 18 Nordeste 0 -- -- 75
2018-10-20 13:00:00 13.8 3 Nordeste 17 Este 0 -- -- 75
2018-10-20 12:00:00 11.9 4 Este 20 Este 0 -- -- 77
2018-10-20 11:00:00 10.8 3 Nordeste 18 Este 0 -- -- 83
2018-10-20 10:00:00 9.3 3 Este 22 Sudoeste 0 -- -- 88
2018-10-20 09:00:00 8 5 Este 19 Nordeste 0 -- -- 91
2018-10-20 08:00:00 8 5 Nordeste 23 Este 0 -- -- 92
2018-10-20 07:00:00 7.9 6 Nordeste 23 Norte 0 -- -- 99
2018-10-20 06:00:00 8 5 Nordeste 17 Nordeste 0 -- -- 99
2018-10-20 05:00:00 8.2 4 Este 28 Este 0 -- -- 99
2018-10-20 04:00:00 8.4 5 Nordeste 31 Este 0 -- -- 98
2018-10-20 03:00:00 8.9 4 Nordeste 16 Este 0 -- -- 95
2018-10-20 02:00:00 9.9 5 Nordeste 23 Este 0 -- -- 89
2018-10-20 01:00:00 9.9 5 Este 20 Este 0 -- -- 91
2018-10-20 00:00:00 10.4 4 Nordeste 21 Nordeste 0 -- -- 93
2018-10-19 23:00:00 10.8 5 Nordeste 27 Este 0 -- -- 94
2018-10-19 22:00:00 11.2 8 Nordeste 24 Nordeste 0 -- -- 92
2018-10-19 21:00:00 11.4 8 Nordeste 28 Norte 0 -- -- 92
2018-10-19 20:00:00 11.3 9 Nordeste 35 Nordeste 0 -- -- 94
2018-10-19 19:00:00 12.1 8 Nordeste 27 Norte 0 -- -- 91
2018-10-19 18:00:00 13.2 8 Nordeste 29 Nordeste 0 -- -- 86
2018-10-19 17:00:00 14.3 5 Nordeste 17 Este 0 -- -- 82
2018-10-19 16:00:00 14.9 5 Nordeste 19 Nordeste 0 -- -- 80
2018-10-19 15:00:00 15 5 Nordeste 17 Este 0 -- -- 80
2018-10-19 14:00:00 14.8 6 Nordeste 28 Este 0 -- -- 79
2018-10-19 13:00:00 14 5 Nordeste 26 Nordeste 0 -- -- 82
2018-10-19 12:00:00 12.2 7 Nordeste 24 Este 0 -- -- 86
2018-10-19 11:00:00 11 5 Este 28 Este 0 -- -- 91
2018-10-19 10:00:00 10.4 8 Nordeste 20 Nordeste 0 -- -- 85
2018-10-19 09:00:00 8.7 5 Nordeste 30 Este 0 -- -- 95
2018-10-19 08:00:00 8.8 7 Nordeste 27 Nordeste 0 -- -- 96
2018-10-19 07:00:00 8.6 8 Nordeste 26 Nordeste 0 -- -- 100
2018-10-19 06:00:00 8.9 10 Nordeste 28 Este 0 -- -- 100
2018-10-19 05:00:00 9.2 9 Nordeste 27 Este 0 -- -- 100
2018-10-19 04:00:00 9.3 8 Nordeste 26 Este 0 -- -- 100
2018-10-19 03:00:00 9.5 9 Nordeste 30 Nordeste 0 -- -- 100
2018-10-19 02:00:00 9.5 6 Nordeste 22 Nordeste 0 -- -- 100
2018-10-19 01:00:00 9.3 6 Nordeste 28 Norte 0 -- -- 100
2018-10-19 00:00:00 9.5 5 Nordeste 25 Nordeste 0 -- -- 100
2018-10-18 23:00:00 9.3 5 Nordeste 27 Nordeste 0 -- -- 100
2018-10-18 22:00:00 9.5 5 Nordeste 26 Nordeste 0 -- -- 99
2018-10-18 21:00:00 9.8 7 Nordeste 29 Nordeste 0 -- -- 98
2018-10-18 20:00:00 10.1 6 Nordeste 26 Nordeste 0 -- -- 96
2018-10-18 19:00:00 10.8 8 Nordeste 30 Nordeste 0 -- -- 93
2018-10-18 18:00:00 11.4 5 Nordeste 32 Nordeste 0 -- -- 91
2018-10-18 17:00:00 11.8 9 Nordeste 30 Este 0 -- -- 91
2018-10-18 16:00:00 11.8 6 Nordeste 29 Este 0 -- -- 95
2018-10-18 15:00:00 11.2 9 Nordeste 34 Nordeste 0 -- -- 100
2018-10-18 14:00:00 10.6 6 Nordeste 29 Este 0 -- -- 100
2018-10-18 13:00:00 9.8 8 Nordeste 32 Nordeste 0 -- -- 100
2018-10-18 12:00:00 9.9 8 Nordeste 32 Nordeste 0 -- -- 100
2018-10-18 11:00:00 9.6 8 Nordeste 29 Nordeste 0 -- -- 100
2018-10-18 10:00:00 9 8 Nordeste 26 Nordeste 0 -- -- 100
2018-10-18 09:00:00 8.7 7 Nordeste 38 Nordeste 0 -- -- 100
2018-10-18 08:00:00 8.7 7 Nordeste 26 Nordeste 0 -- -- 100
2018-10-18 07:00:00 8.4 7 Nordeste 31 Nordeste 0 -- -- 100
2018-10-18 06:00:00 8.2 5 Nordeste 21 Nordeste 0 -- -- 100
2018-10-18 05:00:00 8.1 6 Nordeste 23 Este 0 -- -- 100
2018-10-18 04:00:00 8.1 6 Nordeste 24 Este 0 -- -- 100
2018-10-18 03:00:00 8.3 6 Nordeste 25 Este 0 -- -- 100
2018-10-18 02:00:00 8.3 6 Nordeste 25 Este 0 -- -- 100
2018-10-18 01:00:00 8.3 6 Nordeste 25 Este 0.4 -- -- 100
2018-10-18 00:00:00 8.4 5 Nordeste 21 Nordeste 1.4 -- -- 100